createdAt,value
2018-06-04T00:00:13.788Z,17.50
2018-06-04T00:02:42.363Z,17.50
2018-06-04T00:05:10.895Z,17.50
2018-06-04T00:07:39.405Z,17.50
2018-06-04T00:10:07.901Z,17.50
2018-06-04T00:12:36.447Z,17.50
2018-06-04T00:15:05.386Z,17.40
2018-06-04T00:17:34.048Z,17.40
2018-06-04T00:20:02.601Z,17.40
2018-06-04T00:22:31.111Z,17.40
2018-06-04T00:24:59.656Z,17.30
2018-06-04T00:27:28.155Z,17.30
2018-06-04T00:29:56.766Z,17.30
2018-06-04T00:32:25.325Z,17.30
2018-06-04T00:34:53.926Z,17.30
2018-06-04T00:37:22.529Z,17.30
2018-06-04T00:39:51.076Z,17.30
2018-06-04T00:42:19.613Z,17.30
2018-06-04T00:44:48.168Z,17.30
2018-06-04T00:47:16.675Z,17.20
2018-06-04T00:49:45.177Z,18.60
2018-06-04T00:52:13.767Z,17.30
2018-06-04T00:54:42.289Z,17.30
2018-06-04T00:57:11.061Z,17.20
2018-06-04T00:59:39.613Z,17.30
2018-06-04T01:02:08.136Z,17.30
2018-06-04T01:04:36.670Z,17.30
2018-06-04T01:07:05.278Z,17.30
2018-06-04T01:09:33.803Z,17.20
2018-06-04T01:12:02.300Z,17.20
2018-06-04T01:14:30.938Z,17.10
2018-06-04T01:16:59.440Z,17.10
2018-06-04T01:19:27.903Z,17.00
2018-06-04T01:24:24.723Z,17.00
2018-06-04T01:26:53.304Z,16.90
2018-06-04T01:29:22.125Z,16.90
2018-06-04T01:31:50.821Z,16.90
2018-06-04T01:34:19.372Z,17.00
2018-06-04T01:36:48.200Z,17.10
2018-06-04T01:39:16.788Z,17.00
2018-06-04T01:44:13.467Z,17.00
2018-06-04T01:46:41.973Z,16.90
2018-06-04T01:49:10.474Z,16.90
2018-06-04T01:51:39.069Z,16.90
2018-06-04T01:54:07.640Z,16.90
2018-06-04T01:56:36.213Z,16.90
2018-06-04T01:59:04.879Z,16.90
2018-06-04T02:01:33.348Z,16.80
2018-06-04T02:04:01.895Z,16.90
2018-06-04T02:06:30.404Z,16.80
2018-06-04T02:08:58.934Z,16.80
2018-06-04T02:11:27.441Z,16.80
2018-06-04T02:13:55.980Z,16.70
2018-06-04T02:16:24.577Z,16.70
2018-06-04T02:18:53.094Z,16.60
2018-06-04T02:21:21.601Z,16.60
2018-06-04T02:23:50.137Z,16.60
2018-06-04T02:26:18.659Z,16.60
2018-06-04T02:28:47.148Z,16.50
2018-06-04T02:31:15.689Z,16.50
2018-06-04T02:33:44.233Z,16.50
2018-06-04T02:36:12.765Z,16.40
2018-06-04T02:38:41.452Z,16.40
2018-06-04T02:41:09.959Z,16.30
2018-06-04T02:43:38.429Z,16.30
2018-06-04T02:46:06.926Z,16.30
2018-06-04T02:48:35.534Z,16.30
2018-06-04T02:51:04.211Z,16.30
2018-06-04T02:53:32.795Z,16.20
2018-06-04T02:56:01.368Z,16.20
2018-06-04T02:58:29.963Z,16.20
2018-06-04T03:00:58.582Z,16.20
2018-06-04T03:03:27.145Z,16.20
2018-06-04T03:05:55.668Z,16.20
2018-06-04T03:08:30.717Z,16.20
2018-06-04T03:10:59.248Z,16.20
2018-06-04T03:13:27.823Z,16.20
2018-06-04T03:15:56.309Z,16.20
2018-06-04T03:18:24.837Z,16.20
2018-06-04T03:20:53.311Z,16.10
2018-06-04T03:23:21.823Z,16.10
2018-06-04T03:25:50.373Z,16.10
2018-06-04T03:28:18.892Z,16.10
2018-06-04T03:30:47.388Z,16.10
2018-06-04T03:33:15.943Z,16.10
2018-06-04T03:35:44.581Z,16.20
2018-06-04T03:38:13.146Z,16.10
2018-06-04T03:40:41.621Z,16.20
2018-06-04T03:43:10.320Z,16.20
2018-06-04T03:45:39.024Z,16.20
2018-06-04T03:48:07.631Z,16.30
2018-06-04T03:50:36.187Z,16.30
2018-06-04T03:53:04.692Z,16.40
2018-06-04T03:55:33.188Z,16.40
2018-06-04T03:58:01.673Z,16.40
2018-06-04T04:00:30.179Z,16.50
2018-06-04T04:02:58.882Z,16.60
2018-06-04T04:05:27.396Z,16.60
2018-06-04T04:07:55.911Z,16.60
2018-06-04T04:10:24.513Z,16.70
2018-06-04T04:12:52.996Z,16.70
2018-06-04T04:15:21.564Z,16.70
2018-06-04T04:17:50.095Z,16.80
2018-06-04T04:20:18.656Z,16.90
2018-06-04T04:22:47.200Z,16.90
2018-06-04T04:25:15.779Z,17.00
2018-06-04T04:27:44.376Z,17.10
2018-06-04T04:30:12.844Z,17.10
2018-06-04T04:32:41.391Z,17.20
2018-06-04T04:35:10.048Z,17.10
2018-06-04T04:40:06.915Z,17.10
2018-06-04T04:42:35.496Z,17.10
2018-06-04T04:45:04.399Z,17.00
2018-06-04T04:47:33.027Z,17.00
2018-06-04T04:50:01.520Z,17.10
2018-06-04T04:52:30.040Z,17.20
2018-06-04T04:54:58.548Z,17.30
2018-06-04T04:57:27.076Z,17.30
2018-06-04T04:59:55.582Z,17.50
2018-06-04T05:02:24.184Z,17.60
2018-06-04T05:04:52.743Z,17.80
2018-06-04T05:07:21.271Z,18.00
2018-06-04T05:09:49.773Z,18.20
2018-06-04T05:12:18.397Z,18.30
2018-06-04T05:14:46.981Z,18.50
2018-06-04T05:17:15.707Z,18.70
2018-06-04T05:19:44.237Z,18.90
2018-06-04T05:24:40.924Z,19.80
2018-06-04T05:27:09.436Z,20.30
2018-06-04T05:29:38.037Z,21.10
2018-06-04T05:32:06.528Z,21.70
2018-06-04T05:34:35.036Z,22.30
2018-06-04T05:37:03.579Z,22.60
2018-06-04T05:39:32.089Z,22.90
2018-06-04T05:46:57.094Z,23.70
2018-06-04T05:49:25.648Z,24.20
2018-06-04T05:51:54.198Z,24.10
2018-06-04T05:54:22.696Z,24.50
2018-06-04T05:56:51.290Z,24.30
2018-06-04T05:59:19.974Z,24.60
2018-06-04T06:01:48.504Z,24.80
2018-06-04T06:04:17.024Z,24.90
2018-06-04T06:06:45.730Z,24.70
2018-06-04T06:09:14.444Z,24.80
2018-06-04T06:11:42.955Z,25.10
2018-06-04T06:14:11.553Z,25.90
2018-06-04T06:16:40.193Z,26.30
2018-06-04T06:19:08.703Z,26.30
2018-06-04T06:24:06.538Z,26.20
2018-06-04T06:26:35.210Z,26.60
2018-06-04T06:29:03.727Z,26.90
2018-06-04T06:31:32.795Z,26.60
2018-06-04T06:34:01.404Z,26.00
2018-06-04T06:36:29.964Z,26.20
2018-06-04T06:38:58.512Z,26.70
2018-06-04T06:41:27.030Z,26.70
2018-06-04T06:43:55.799Z,27.00
2018-06-04T06:46:24.356Z,27.20
2018-06-04T06:48:52.889Z,27.00
2018-06-04T06:51:21.495Z,26.50
2018-06-04T06:53:50.247Z,25.70
2018-06-04T06:56:18.952Z,26.40
2018-06-04T06:58:47.465Z,26.60
2018-06-04T07:01:16.028Z,25.90
2018-06-04T07:03:44.705Z,25.70
2018-06-04T07:06:13.238Z,25.00
2018-06-04T07:08:41.785Z,25.10
2018-06-04T07:11:10.516Z,24.90
2018-06-04T07:13:39.011Z,24.60
2018-06-04T07:16:07.716Z,24.40
2018-06-04T07:18:36.208Z,24.20
2018-06-04T07:21:04.764Z,24.10
2018-06-04T07:23:33.433Z,23.90
2018-06-04T07:26:01.935Z,23.70
2018-06-04T07:28:30.680Z,23.60
2018-06-04T07:30:59.221Z,24.10
2018-06-04T07:33:27.876Z,23.80
2018-06-04T07:36:08.960Z,23.60
2018-06-04T07:38:37.723Z,23.70
2018-06-04T07:41:06.636Z,23.60
2018-06-04T07:43:35.232Z,23.60
2018-06-04T07:46:03.828Z,23.80
2018-06-04T07:48:32.475Z,23.60
2018-06-04T07:51:01.015Z,23.70
2018-06-04T07:53:29.606Z,23.50
2018-06-04T07:55:58.117Z,23.60
2018-06-04T07:58:26.624Z,23.70
2018-06-04T08:00:55.140Z,23.60
2018-06-04T08:03:23.732Z,23.70
2018-06-04T08:05:52.248Z,23.70
2018-06-04T08:08:20.764Z,23.80
2018-06-04T08:10:49.301Z,24.10
2018-06-04T08:13:17.868Z,24.20
2018-06-04T08:15:46.960Z,24.20
2018-06-04T08:18:15.480Z,24.30
2018-06-04T08:20:44.016Z,24.30
2018-06-04T08:23:12.537Z,24.30
2018-06-04T08:25:41.102Z,23.80
2018-06-04T08:28:09.788Z,23.80
2018-06-04T08:30:38.350Z,24.10
2018-06-04T08:33:06.934Z,24.30
2018-06-04T08:35:35.533Z,24.30
2018-06-04T08:38:04.189Z,24.40
2018-06-04T08:40:32.731Z,24.40
2018-06-04T08:43:01.420Z,24.10
2018-06-04T08:45:30.003Z,23.90
2018-06-04T08:47:58.632Z,24.20
2018-06-04T08:50:27.341Z,24.40
2018-06-04T08:52:55.835Z,24.50
2018-06-04T08:55:24.362Z,24.70
2018-06-04T08:57:53.027Z,24.80
2018-06-04T09:00:21.631Z,24.80
2018-06-04T09:02:50.241Z,24.70
2018-06-04T09:05:18.748Z,24.80
2018-06-04T09:07:47.383Z,24.70
2018-06-04T09:10:15.889Z,24.70
2018-06-04T09:12:44.421Z,24.70
2018-06-04T09:15:12.926Z,24.50
2018-06-04T09:17:41.473Z,24.30
2018-06-04T09:20:10.060Z,24.50
2018-06-04T09:22:38.740Z,24.50
2018-06-04T09:25:07.289Z,24.50
2018-06-04T09:27:35.828Z,24.40
2018-06-04T09:30:04.520Z,24.40
2018-06-04T09:32:33.148Z,24.60
2018-06-04T09:35:01.668Z,24.90
2018-06-04T09:37:30.320Z,24.80
2018-06-04T09:39:58.980Z,24.80
2018-06-04T09:42:27.515Z,24.90
2018-06-04T09:44:56.053Z,25.10
2018-06-04T09:47:24.608Z,25.20
2018-06-04T09:49:53.124Z,25.30
2018-06-04T09:52:21.598Z,25.30
2018-06-04T09:54:51.174Z,25.30
2018-06-04T09:57:19.724Z,25.30
2018-06-04T09:59:48.236Z,25.40
2018-06-04T10:02:16.706Z,25.50
2018-06-04T10:04:45.391Z,25.80
2018-06-04T10:07:13.840Z,25.80
2018-06-04T10:09:42.470Z,25.80
2018-06-04T10:12:11.035Z,25.80
2018-06-04T10:14:39.783Z,25.80
2018-06-04T10:17:08.308Z,26.00
2018-06-04T10:19:36.821Z,26.10
2018-06-04T10:22:05.545Z,26.20
2018-06-04T10:24:34.089Z,26.20
2018-06-04T10:27:02.766Z,26.10
2018-06-04T10:29:31.344Z,26.20
2018-06-04T10:31:59.971Z,26.30
2018-06-04T10:34:28.640Z,26.40
2018-06-04T10:42:00.180Z,26.60
2018-06-04T10:44:28.691Z,26.50
2018-06-04T10:46:57.208Z,26.50
2018-06-04T10:49:25.715Z,26.50
2018-06-04T10:51:54.220Z,26.30
2018-06-04T10:54:22.853Z,26.40
2018-06-04T10:56:51.437Z,26.30
2018-06-04T10:59:20.037Z,26.50
2018-06-04T11:01:48.639Z,26.80
2018-06-04T11:04:17.361Z,26.90
2018-06-04T11:06:46.130Z,27.00
2018-06-04T11:09:14.659Z,27.10
2018-06-04T11:11:43.254Z,27.10
2018-06-04T11:14:11.792Z,27.10
2018-06-04T11:16:40.352Z,26.90
2018-06-04T11:19:08.879Z,26.70
2018-06-04T11:24:05.732Z,26.80
2018-06-04T11:26:34.425Z,27.00
2018-06-04T11:31:31.350Z,27.20
2018-06-04T11:33:59.960Z,27.40
2018-06-04T11:36:28.465Z,27.40
2018-06-04T11:38:57.035Z,27.50
2018-06-04T11:41:25.566Z,27.30
2018-06-04T11:43:54.302Z,27.50
2018-06-04T11:46:22.821Z,27.60
2018-06-04T11:48:51.359Z,27.50
2018-06-04T11:51:19.963Z,27.20
2018-06-04T11:53:48.751Z,27.00
2018-06-04T11:56:17.338Z,26.70
2018-06-04T12:01:13.980Z,26.50
2018-06-04T12:03:42.682Z,26.60
2018-06-04T12:06:11.401Z,26.70
2018-06-04T12:08:40.128Z,26.90
2018-06-04T12:11:08.628Z,27.10
2018-06-04T12:13:37.175Z,27.40
2018-06-04T12:16:05.810Z,27.60
2018-06-04T12:18:34.464Z,27.70
2018-06-04T12:21:03.033Z,27.70
2018-06-04T12:23:31.682Z,27.70
2018-06-04T12:26:00.233Z,27.60
2018-06-04T12:30:57.011Z,27.60
2018-06-04T12:33:25.611Z,27.50
2018-06-04T12:35:54.187Z,27.30
2018-06-04T12:38:22.695Z,27.10
2018-06-04T12:40:51.713Z,26.80
2018-06-04T12:43:20.314Z,26.70
2018-06-04T12:45:48.847Z,26.70
2018-06-04T12:48:17.374Z,26.70
2018-06-04T12:50:45.882Z,27.10
2018-06-04T12:53:14.446Z,27.30
2018-06-04T12:55:43.000Z,27.60
2018-06-04T12:58:11.646Z,27.90
2018-06-04T13:00:40.280Z,28.20
2018-06-04T13:03:08.874Z,28.00
2018-06-04T13:05:37.447Z,28.30
2018-06-04T13:08:06.018Z,28.50
2018-06-04T13:10:34.736Z,28.40
2018-06-04T13:13:03.320Z,28.60
2018-06-04T13:15:31.863Z,28.40
2018-06-04T13:18:00.587Z,28.90
2018-06-04T13:20:29.178Z,28.60
2018-06-04T13:22:57.691Z,28.70
2018-06-04T13:25:26.284Z,28.90
2018-06-04T13:27:54.916Z,28.90
2018-06-04T13:30:23.599Z,28.30
2018-06-04T13:32:52.140Z,28.10
2018-06-04T13:35:21.093Z,27.80
2018-06-04T13:37:49.663Z,27.80
2018-06-04T13:40:18.252Z,28.00
2018-06-04T13:42:46.900Z,28.10
2018-06-04T13:45:15.452Z,28.00
2018-06-04T13:47:44.492Z,28.20
2018-06-04T13:50:12.997Z,27.90
2018-06-04T13:52:41.730Z,28.20
2018-06-04T13:55:10.521Z,28.30
2018-06-04T13:57:39.241Z,28.50
2018-06-04T14:00:07.859Z,28.70
2018-06-04T14:02:36.410Z,28.40
2018-06-04T14:05:05.095Z,28.20
2018-06-04T14:07:33.640Z,27.90
2018-06-04T14:10:02.227Z,28.10
2018-06-04T14:12:30.783Z,28.10
2018-06-04T14:14:59.548Z,28.20
2018-06-04T14:17:28.148Z,28.40
2018-06-04T14:19:56.715Z,28.50
2018-06-04T14:22:25.268Z,28.70
2018-06-04T14:24:53.801Z,28.60
2018-06-04T14:27:22.388Z,28.30
2018-06-04T14:29:51.047Z,28.20
2018-06-04T14:32:19.558Z,28.00
2018-06-04T14:34:48.107Z,28.00
2018-06-04T14:37:16.811Z,27.90
2018-06-04T14:39:45.409Z,27.80
2018-06-04T14:42:13.986Z,27.90
2018-06-04T14:44:42.600Z,27.60
2018-06-04T14:47:11.300Z,27.80
2018-06-04T14:49:39.788Z,28.00
2018-06-04T14:52:08.443Z,27.90
2018-06-04T14:54:36.992Z,28.10
2018-06-04T14:57:05.736Z,28.20
2018-06-04T14:59:34.240Z,27.90
2018-06-04T15:02:02.901Z,28.10
2018-06-04T15:04:31.468Z,27.70
2018-06-04T15:07:00.015Z,27.50
2018-06-04T15:09:28.755Z,27.50
2018-06-04T15:11:57.408Z,27.50
2018-06-04T15:14:25.927Z,27.50
2018-06-04T15:16:54.552Z,27.40
2018-06-04T15:19:23.136Z,27.30
2018-06-04T15:21:51.757Z,26.90
2018-06-04T15:24:20.280Z,26.80
2018-06-04T15:26:48.776Z,26.70
2018-06-04T15:29:17.368Z,26.60
2018-06-04T15:31:45.912Z,26.70
2018-06-04T15:34:15.175Z,26.70
2018-06-04T15:39:12.083Z,27.00
2018-06-04T15:41:40.648Z,27.30
2018-06-04T15:44:09.153Z,27.50
2018-06-04T15:46:37.674Z,27.40
2018-06-04T15:49:06.352Z,27.40
2018-06-04T15:51:34.961Z,27.50
2018-06-04T15:54:03.562Z,27.50
2018-06-04T15:56:32.157Z,27.50
2018-06-04T15:59:00.799Z,27.50
2018-06-04T16:01:29.348Z,27.20
2018-06-04T16:03:58.191Z,27.20
2018-06-04T16:06:26.903Z,27.30
2018-06-04T16:08:55.524Z,27.10
2018-06-04T16:11:24.073Z,27.30
2018-06-04T16:13:52.626Z,27.30
2018-06-04T16:18:49.540Z,27.30
2018-06-04T16:21:18.074Z,27.10
2018-06-04T16:23:46.808Z,27.00
2018-06-04T16:26:15.378Z,26.90
2018-06-04T16:28:44.016Z,26.80
2018-06-04T16:31:12.756Z,26.90
2018-06-04T16:33:41.238Z,26.90
2018-06-04T16:36:09.830Z,26.80
2018-06-04T16:38:38.383Z,26.70
2018-06-04T16:41:06.907Z,26.70
2018-06-04T16:43:35.400Z,26.50
2018-06-04T16:46:03.964Z,26.20
2018-06-04T16:48:32.647Z,26.20
2018-06-04T16:51:01.231Z,26.20
2018-06-04T16:53:29.824Z,26.10
2018-06-04T16:55:58.648Z,26.10
2018-06-04T16:58:27.204Z,26.00
2018-06-04T17:00:55.767Z,26.00
2018-06-04T17:03:24.278Z,26.10
2018-06-04T17:05:52.923Z,25.90
2018-06-04T17:08:21.649Z,26.00
2018-06-04T17:10:50.223Z,26.10
2018-06-04T17:13:18.880Z,26.10
2018-06-04T17:15:47.379Z,26.10
2018-06-04T17:18:16.084Z,25.90
2018-06-04T17:20:44.600Z,25.90
2018-06-04T17:23:13.167Z,25.80
2018-06-04T17:25:41.734Z,25.70
2018-06-04T17:28:10.339Z,25.50
2018-06-04T17:30:39.056Z,25.50
2018-06-04T17:33:07.698Z,25.40
2018-06-04T17:35:36.175Z,25.40
2018-06-04T17:38:04.907Z,25.40
2018-06-04T17:40:33.463Z,25.30
2018-06-04T17:43:02.063Z,25.40
2018-06-04T17:45:30.718Z,25.50
2018-06-04T17:47:59.512Z,25.40
2018-06-04T17:50:28.330Z,25.40
2018-06-04T17:52:56.938Z,25.40
2018-06-04T17:55:25.475Z,25.20
2018-06-04T17:57:54.035Z,25.20
2018-06-04T18:00:22.586Z,25.10
2018-06-04T18:02:51.123Z,25.10
2018-06-04T18:05:19.652Z,24.90
2018-06-04T18:07:48.194Z,24.80
2018-06-04T18:10:16.855Z,24.80
2018-06-04T18:12:45.583Z,24.80
2018-06-04T18:17:42.375Z,24.70
2018-06-04T18:20:11.012Z,24.70
2018-06-04T18:22:39.679Z,24.70
2018-06-04T18:25:08.279Z,24.60
2018-06-04T18:27:37.017Z,24.60
2018-06-04T18:30:05.534Z,24.50
2018-06-04T18:32:34.227Z,24.50
2018-06-04T18:35:02.816Z,24.50
2018-06-04T18:37:31.420Z,24.40
2018-06-04T18:40:00.099Z,24.30
2018-06-04T18:42:28.855Z,24.30
2018-06-04T18:44:57.460Z,24.20
2018-06-04T18:47:26.003Z,24.10
2018-06-04T18:49:54.680Z,24.00
2018-06-04T18:52:23.208Z,24.00
2018-06-04T18:54:51.791Z,23.90
2018-06-04T18:57:20.392Z,23.80
2018-06-04T18:59:48.881Z,23.80
2018-06-04T19:02:17.412Z,23.80
2018-06-04T19:04:46.077Z,23.70
2018-06-04T19:07:14.632Z,23.60
2018-06-04T19:09:43.191Z,23.50
2018-06-04T19:12:11.976Z,23.40
2018-06-04T19:14:40.647Z,23.40
2018-06-04T19:17:09.460Z,23.40
2018-06-04T19:19:38.059Z,23.30
2018-06-04T19:22:07.171Z,23.30
2018-06-04T19:24:35.679Z,23.20
2018-06-04T19:27:04.291Z,23.10
2018-06-04T19:29:33.028Z,23.10
2018-06-04T19:32:01.695Z,23.00
2018-06-04T19:36:58.813Z,22.90
2018-06-04T19:39:27.438Z,22.80
2018-06-04T19:41:55.951Z,22.80
2018-06-04T19:44:24.640Z,22.70
2018-06-04T19:46:53.144Z,22.70
2018-06-04T19:49:21.755Z,22.60
2018-06-04T19:51:50.261Z,22.60
2018-06-04T19:54:18.858Z,22.50
2018-06-04T19:56:47.481Z,22.50
2018-06-04T19:59:16.152Z,22.40
2018-06-04T20:01:45.016Z,22.40
2018-06-04T20:04:13.617Z,22.40
2018-06-04T20:06:42.136Z,22.30
2018-06-04T20:09:11.655Z,22.30
2018-06-04T20:11:40.225Z,22.30
2018-06-04T20:14:08.766Z,22.20
2018-06-04T20:16:37.741Z,22.20
2018-06-04T20:19:06.470Z,22.10
2018-06-04T20:21:35.073Z,22.10
2018-06-04T20:24:03.648Z,22.00
2018-06-04T20:26:32.186Z,22.00
2018-06-04T20:29:01.101Z,21.90
2018-06-04T20:31:29.794Z,21.90
2018-06-04T20:33:58.332Z,21.90
2018-06-04T20:36:26.887Z,21.80
2018-06-04T20:38:55.381Z,21.80
2018-06-04T20:41:24.033Z,21.80
2018-06-04T20:43:52.591Z,21.70
2018-06-04T20:46:21.272Z,21.60
2018-06-04T20:48:49.879Z,21.60
2018-06-04T20:51:18.451Z,21.50
2018-06-04T20:53:47.180Z,21.50
2018-06-04T20:56:16.211Z,21.50
2018-06-04T20:58:44.844Z,21.50
2018-06-04T21:01:13.424Z,21.40
2018-06-04T21:03:42.113Z,21.30
2018-06-04T21:06:10.710Z,21.30
2018-06-04T21:08:39.268Z,21.30
2018-06-04T21:11:08.015Z,21.30
2018-06-04T21:13:36.743Z,21.20
2018-06-04T21:16:05.743Z,21.20
2018-06-04T21:18:34.310Z,21.20
2018-06-04T21:21:02.936Z,21.10
2018-06-04T21:23:31.537Z,21.10
2018-06-04T21:26:00.084Z,21.00
2018-06-04T21:28:28.698Z,21.00
2018-06-04T21:30:57.363Z,20.90
2018-06-04T21:33:25.997Z,20.90
2018-06-04T21:35:54.570Z,20.80
2018-06-04T21:38:23.135Z,20.80
2018-06-04T21:40:51.694Z,20.80
2018-06-04T21:43:20.194Z,20.80
2018-06-04T21:45:48.801Z,20.70
2018-06-04T21:48:17.379Z,20.70
2018-06-04T21:50:45.940Z,20.70
2018-06-04T21:53:14.570Z,20.60
2018-06-04T21:55:43.123Z,20.60
2018-06-04T21:58:11.752Z,20.50
2018-06-04T22:00:40.366Z,20.50
2018-06-04T22:03:08.855Z,20.40
2018-06-04T22:05:37.556Z,20.40
2018-06-04T22:08:06.139Z,20.40
2018-06-04T22:10:34.728Z,20.30
2018-06-04T22:13:03.244Z,20.20
2018-06-04T22:18:00.166Z,20.20
2018-06-04T22:20:28.783Z,20.20
2018-06-04T22:22:57.296Z,20.10
2018-06-04T22:25:25.852Z,20.00
2018-06-04T22:27:54.384Z,20.00
2018-06-04T22:30:23.256Z,20.00
2018-06-04T22:32:51.832Z,20.00
2018-06-04T22:35:20.455Z,19.90
2018-06-04T22:37:48.944Z,19.90
2018-06-04T22:40:17.534Z,19.80
2018-06-04T22:42:46.110Z,19.80
2018-06-04T22:45:14.629Z,19.70
2018-06-04T22:47:43.175Z,19.70
2018-06-04T22:50:11.684Z,19.70
2018-06-04T22:52:40.343Z,19.70
2018-06-04T22:55:08.865Z,19.60
2018-06-04T22:57:37.451Z,19.60
2018-06-04T23:00:05.993Z,19.60
2018-06-04T23:02:34.639Z,19.50
2018-06-04T23:05:03.206Z,19.50
2018-06-04T23:09:59.904Z,19.40
2018-06-04T23:12:28.600Z,19.30
2018-06-04T23:14:57.120Z,19.30
2018-06-04T23:17:25.708Z,19.20
2018-06-04T23:19:54.381Z,19.20
2018-06-04T23:22:22.892Z,19.20
2018-06-04T23:24:51.873Z,19.20
2018-06-04T23:27:20.375Z,19.10
2018-06-04T23:29:49.483Z,19.10
2018-06-04T23:32:18.079Z,19.00
2018-06-04T23:34:46.613Z,18.90
2018-06-04T23:37:15.116Z,18.90
2018-06-04T23:39:44.055Z,18.90
2018-06-04T23:42:12.964Z,18.90
2018-06-04T23:44:41.699Z,18.70
2018-06-04T23:47:10.486Z,18.70
2018-06-04T23:49:39.135Z,18.70
2018-06-04T23:52:07.937Z,18.70
2018-06-04T23:54:37.217Z,18.60
2018-06-04T23:57:06.040Z,18.60
2018-06-04T23:59:34.556Z,18.50
